Time;durP1;ratioP1;P1;durP2;ratioP2;P2;SDS_P1;SDS_P2;PMS_P1;PMS_P2;Temp;Humidity;BMP_temperature;BMP_pressure;BME280_temperature;BME280_humidity;BME280_pressure;Samples;Min_cycle;Max_cycle;Signal;HPM_P1;HPM_P2
2023/12/19 00:01:45;;;;;;;52.30;14.87;;;;;0.30;97420.00;;;;8305132;28;20204;-74
2023/12/19 00:05:49;;;;;;;183.70;16.93;;;;;0.30;97424.00;;;;8305268;28;20195;-74
2023/12/19 00:09:53;;;;;;;86.63;16.37;;;;;0.30;97419.00;;;;8304292;28;20622;-74
2023/12/19 00:13:57;;;;;;;75.30;14.93;;;;;0.40;97410.00;;;;8304693;28;20614;-74
2023/12/19 00:18:00;;;;;;;206.13;19.37;;;;;0.40;97410.00;;;;8304221;28;20396;-75
2023/12/19 00:22:03;;;;;;;127.83;15.43;;;;;0.30;97397.00;;;;8304783;28;20231;-75
2023/12/19 00:26:08;;;;;;;77.73;14.47;;;;;0.30;97391.00;;;;8303798;28;20209;-74
2023/12/19 00:30:12;;;;;;;82.77;12.60;;;;;0.30;97399.00;;;;8303749;28;20629;-75
2023/12/19 00:34:16;;;;;;;68.83;12.03;;;;;0.30;97404.00;;;;8303911;28;20192;-75
2023/12/19 00:38:19;;;;;;;73.47;11.43;;;;;0.30;97397.00;;;;8303137;28;20628;-75
2023/12/19 00:42:24;;;;;;;55.30;10.97;;;;;0.30;97402.00;;;;8303599;28;20625;-76
2023/12/19 00:46:27;;;;;;;84.43;12.47;;;;;0.20;97398.00;;;;8304114;28;20200;-76
2023/12/19 00:50:30;;;;;;;225.17;17.27;;;;;0.20;97404.00;;;;8302269;28;20207;-76
2023/12/19 00:54:33;;;;;;;71.17;12.03;;;;;0.10;97404.00;;;;8303138;28;20234;-76
2023/12/19 00:58:39;;;;;;;68.90;11.87;;;;;0.10;97407.00;;;;8303568;28;20242;-76
2023/12/19 01:02:42;;;;;;;43.57;11.37;;;;;0.10;97394.00;;;;8302473;28;20223;-77
2023/12/19 01:06:48;;;;;;;61.63;11.70;;;;;0.10;97389.00;;;;8303165;28;20287;-77
2023/12/19 01:10:51;;;;;;;106.90;14.00;;;;;0.10;97388.00;;;;8302348;28;20190;-77
2023/12/19 01:14:56;;;;;;;98.23;14.00;;;;;0.10;97371.00;;;;8302284;28;20258;-77
2023/12/19 01:19:00;;;;;;;112.57;14.37;;;;;0.20;97361.00;;;;8299675;28;20222;-77
2023/12/19 01:23:04;;;;;;;118.57;13.60;;;;;0.20;97356.00;;;;8302082;28;20643;-78
2023/12/19 01:27:07;;;;;;;95.47;11.23;;;;;0.20;97353.00;;;;8301425;28;20235;-79
2023/12/19 01:31:11;;;;;;;86.47;12.93;;;;;0.10;97350.00;;;;8301812;28;20286;-79
2023/12/19 01:35:15;;;;;;;63.97;11.43;;;;;-0.10;97348.00;;;;8301372;28;20681;-80
2023/12/19 01:39:18;;;;;;;80.97;11.27;;;;;-0.10;97354.00;;;;8302714;28;20232;-80
2023/12/19 01:43:22;;;;;;;87.47;11.80;;;;;-0.20;97354.00;;;;8301764;28;20198;-80
2023/12/19 01:47:27;;;;;;;59.60;11.43;;;;;-0.20;97354.00;;;;8301371;28;20298;-81
2023/12/19 01:51:30;;;;;;;73.43;12.63;;;;;-0.20;97356.00;;;;8301887;28;20525;-82
2023/12/19 01:55:35;;;;;;;33.83;11.30;;;;;-0.30;97365.00;;;;8300241;28;20306;-81
2023/12/19 01:59:39;;;;;;;27.13;10.23;;;;;-0.40;97379.00;;;;8301740;28;20205;-82
2023/12/19 02:03:44;;;;;;;35.67;12.03;;;;;-0.60;97392.00;;;;8301054;28;20253;-81
2023/12/19 02:07:48;;;;;;;21.87;10.60;;;;;-0.80;97383.00;;;;8300713;28;20230;-80
2023/12/19 02:11:51;;;;;;;23.47;10.53;;;;;-0.80;97376.00;;;;8300768;28;20624;-81
2023/12/19 02:15:54;;;;;;;19.13;9.73;;;;;-0.80;97372.00;;;;8301090;28;20563;-80
2023/12/19 02:20:00;;;;;;;21.07;9.93;;;;;-0.80;97360.00;;;;8300395;28;20591;-79
2023/12/19 02:24:05;;;;;;;20.03;9.77;;;;;-0.80;97372.00;;;;8302032;28;20226;-79
2023/12/19 02:28:09;;;;;;;17.10;8.90;;;;;-0.90;97357.00;;;;8300277;28;20677;-78
2023/12/19 02:32:12;;;;;;;18.63;9.87;;;;;-0.90;97349.00;;;;8299222;28;20199;-78
2023/12/19 02:36:16;;;;;;;16.20;8.97;;;;;-0.90;97343.00;;;;8299757;28;20229;-78
2023/12/19 02:40:21;;;;;;;19.97;9.77;;;;;-1.00;97338.00;;;;8300812;28;20567;-78
2023/12/19 02:44:24;;;;;;;17.53;9.23;;;;;-1.00;97339.00;;;;8299748;28;20289;-78
2023/12/19 02:48:28;;;;;;;24.20;10.33;;;;;-1.00;97324.00;;;;8300149;28;20602;-78
2023/12/19 02:52:31;;;;;;;16.23;9.57;;;;;-1.00;97326.00;;;;8300218;28;20202;-78
2023/12/19 02:56:36;;;;;;;18.47;9.73;;;;;-1.00;97327.00;;;;8299698;28;20218;-78
2023/12/19 03:05:04;;;;;;;22.90;9.73;;;;;-1.10;97316.00;;;;8301505;28;20240;-78
2023/12/19 03:09:07;;;;;;;19.70;10.10;;;;;-1.10;97308.00;;;;8309638;28;20606;-78
2023/12/19 03:13:12;;;;;;;24.10;10.30;;;;;-1.20;97319.00;;;;8312277;28;20229;-79
2023/12/19 03:17:15;;;;;;;22.70;10.27;;;;;-1.20;97313.00;;;;8307045;28;20658;-79
2023/12/19 03:21:18;;;;;;;19.23;10.20;;;;;-1.20;97304.00;;;;8312520;28;20198;-80
2023/12/19 03:25:21;;;;;;;19.07;9.50;;;;;-1.20;97294.00;;;;8317328;28;20195;-81
2023/12/19 03:29:26;;;;;;;22.20;10.60;;;;;-1.20;97291.00;;;;8336604;28;20677;-81
2023/12/19 03:33:29;;;;;;;18.67;9.80;;;;;-1.20;97294.00;;;;8307178;28;20618;-81
2023/12/19 03:37:32;;;;;;;20.87;10.27;;;;;-1.30;97281.00;;;;8315010;28;20227;-80
2023/12/19 03:41:35;;;;;;;26.30;11.33;;;;;-1.20;97275.00;;;;8315876;28;20289;-82
2023/12/19 03:45:40;;;;;;;20.83;10.43;;;;;-1.20;97272.00;;;;8315622;28;20292;-81
2023/12/19 03:49:43;;;;;;;25.30;9.90;;;;;-1.20;97272.00;;;;8315169;28;20205;-79
2023/12/19 03:53:46;;;;;;;24.90;9.90;;;;;-1.30;97276.00;;;;8311104;28;20253;-77
2023/12/19 03:57:49;;;;;;;22.23;9.97;;;;;-1.30;97268.00;;;;8315558;28;20228;-80
2023/12/19 04:01:55;;;;;;;26.53;11.30;;;;;-1.30;97258.00;;;;8319501;28;20724;-77
2023/12/19 04:05:58;;;;;;;26.47;11.80;;;;;-1.30;97271.00;;;;8311661;28;20206;-78
2023/12/19 04:10:01;;;;;;;21.67;8.97;;;;;-1.30;97256.00;;;;8324167;28;20208;-77
2023/12/19 04:14:05;;;;;;;22.57;10.07;;;;;-1.40;97261.00;;;;8323553;28;20844;-75
2023/12/19 04:18:14;;;;;;;24.57;10.30;;;;;-1.50;97266.00;;;;8319745;28;20235;-75
2023/12/19 04:22:17;;;;;;;17.70;9.70;;;;;-1.50;97246.00;;;;8325299;28;20194;-75
2023/12/19 04:26:21;;;;;;;21.00;9.80;;;;;-1.50;97234.00;;;;8335056;28;20632;-77
2023/12/19 04:30:24;;;;;;;20.23;9.50;;;;;-1.50;97248.00;;;;8322669;28;20202;-76
2023/12/19 04:34:29;;;;;;;21.37;9.67;;;;;-1.60;97253.00;;;;8312017;28;20347;-72
2023/12/19 04:38:32;;;;;;;20.60;9.50;;;;;-1.60;97247.00;;;;8307709;28;20710;-76
2023/12/19 04:42:35;;;;;;;17.20;8.63;;;;;-1.60;97245.00;;;;8313220;28;20219;-71
2023/12/19 04:46:38;;;;;;;19.77;8.97;;;;;-1.60;97242.00;;;;8313882;28;20297;-74
2023/12/19 04:50:42;;;;;;;19.57;9.47;;;;;-1.60;97245.00;;;;8298854;28;20232;-71
2023/12/19 04:54:46;;;;;;;22.90;9.70;;;;;-1.60;97241.00;;;;8312139;28;20204;-69
2023/12/19 04:58:49;;;;;;;24.77;9.53;;;;;-1.60;97239.00;;;;8308828;28;20229;-73
2023/12/19 05:02:53;;;;;;;18.80;9.03;;;;;-1.60;97223.00;;;;8304633;28;20231;-71
2023/12/19 05:07:01;;;;;;;22.53;10.50;;;;;-1.60;97222.00;;;;8312982;28;20228;-71
2023/12/19 05:11:05;;;;;;;19.97;8.73;;;;;-1.60;97221.00;;;;8314234;28;20270;-73
2023/12/19 05:15:08;;;;;;;18.53;9.33;;;;;-1.60;97217.00;;;;8313718;28;20288;-71
2023/12/19 05:19:12;;;;;;;21.33;10.33;;;;;-1.70;97234.00;;;;8319423;28;20275;-71
2023/12/19 05:23:16;;;;;;;24.77;10.03;;;;;-1.70;97227.00;;;;8317476;28;20213;-73
2023/12/19 05:27:19;;;;;;;25.60;11.03;;;;;-1.60;97217.00;;;;8305483;28;20277;-75
2023/12/19 05:31:22;;;;;;;24.73;10.70;;;;;-1.60;97228.00;;;;8299805;28;20242;-74
2023/12/19 05:35:26;;;;;;;29.37;11.60;;;;;-1.50;97214.00;;;;8311961;28;20247;-72
2023/12/19 05:39:30;;;;;;;26.70;11.13;;;;;-1.60;97206.00;;;;8322181;28;20356;-73
2023/12/19 05:43:34;;;;;;;38.67;12.37;;;;;-1.60;97200.00;;;;8315696;28;20198;-73
2023/12/19 05:47:37;;;;;;;32.03;12.23;;;;;-1.60;97211.00;;;;8317360;28;20292;-73
2023/12/19 05:51:40;;;;;;;34.57;12.53;;;;;-1.60;97209.00;;;;8313546;28;20214;-75
2023/12/19 05:55:45;;;;;;;31.80;12.10;;;;;-1.70;97205.00;;;;8310438;28;20197;-73
2023/12/19 05:59:48;;;;;;;40.43;12.60;;;;;-1.60;97183.00;;;;8314579;28;20790;-73
2023/12/19 06:03:51;;;;;;;30.07;11.60;;;;;-1.60;97178.00;;;;8309342;28;20260;-72
2023/12/19 06:07:55;;;;;;;30.23;12.13;;;;;-1.60;97185.00;;;;8311284;28;20201;-74
2023/12/19 06:11:59;;;;;;;30.73;12.87;;;;;-1.80;97194.00;;;;8314693;28;20198;-73
2023/12/19 06:16:03;;;;;;;34.80;12.53;;;;;-1.70;97190.00;;;;8311661;28;20216;-73
2023/12/19 06:20:10;;;;;;;34.60;12.03;;;;;-1.70;97179.00;;;;8316639;28;20263;-72
2023/12/19 06:24:13;;;;;;;24.73;11.03;;;;;-1.70;97179.00;;;;8303292;28;20240;-72
2023/12/19 06:28:17;;;;;;;31.50;11.83;;;;;-1.70;97182.00;;;;8307205;28;20316;-70
2023/12/19 06:32:20;;;;;;;30.97;12.07;;;;;-1.70;97174.00;;;;8300995;28;20202;-72
2023/12/19 06:36:31;;;;;;;35.23;11.37;;;;;-1.60;97172.00;;;;8311616;28;20189;-71
2023/12/19 06:40:35;;;;;;;27.70;11.97;;;;;-1.70;97154.00;;;;8311462;28;20197;-71
2023/12/19 06:44:41;;;;;;;27.67;11.70;;;;;-1.60;97159.00;;;;8313586;28;20661;-72
2023/12/19 06:48:45;;;;;;;28.80;11.73;;;;;-1.60;97165.00;;;;8311251;28;20284;-71
2023/12/19 06:52:48;;;;;;;27.20;11.40;;;;;-1.60;97153.00;;;;8311837;28;20340;-70
2023/12/19 06:56:53;;;;;;;30.50;11.57;;;;;-1.50;97155.00;;;;8313676;28;20257;-70
2023/12/19 07:00:57;;;;;;;27.50;11.23;;;;;-1.50;97166.00;;;;8310518;28;20201;-70
2023/12/19 07:05:00;;;;;;;24.97;11.30;;;;;-1.40;97158.00;;;;8312608;28;20209;-72
2023/12/19 07:09:04;;;;;;;26.57;11.73;;;;;-1.40;97160.00;;;;8312822;28;20190;-72
2023/12/19 07:13:07;;;;;;;25.57;10.13;;;;;-1.40;97152.00;;;;8310805;28;20252;-70
2023/12/19 07:17:12;;;;;;;24.50;10.87;;;;;-1.30;97156.00;;;;8311875;28;21036;-74
2023/12/19 07:21:20;;;;;;;24.53;12.37;;;;;-1.10;97154.00;;;;8310915;28;20309;-73
2023/12/19 07:25:23;;;;;;;21.63;10.37;;;;;-1.00;97159.00;;;;8309969;28;20285;-74
2023/12/19 07:29:26;;;;;;;23.43;10.47;;;;;-0.90;97167.00;;;;8311619;28;20224;-71
2023/12/19 07:33:31;;;;;;;25.53;11.60;;;;;-0.80;97161.00;;;;8309126;28;21103;-75
2023/12/19 07:37:34;;;;;;;24.60;11.00;;;;;-0.60;97156.00;;;;8309414;28;20312;-72
2023/12/19 07:41:40;;;;;;;27.50;11.47;;;;;-0.50;97156.00;;;;8308750;28;20206;-75
2023/12/19 07:45:44;;;;;;;30.60;12.07;;;;;-0.30;97164.00;;;;8310313;28;20204;-74
2023/12/19 07:49:48;;;;;;;24.73;11.77;;;;;-0.10;97165.00;;;;8309139;28;20195;-70
2023/12/19 07:53:54;;;;;;;25.57;10.93;;;;;0.10;97166.00;;;;8308918;28;20299;-74
2023/12/19 07:57:57;;;;;;;26.03;11.23;;;;;0.30;97163.00;;;;8306985;28;20341;-71
2023/12/19 08:02:01;;;;;;;25.47;12.37;;;;;0.50;97161.00;;;;8309447;28;20230;-71
2023/12/19 08:06:06;;;;;;;30.53;11.97;;;;;0.70;97150.00;;;;8310494;28;20211;-76
2023/12/19 08:10:09;;;;;;;25.43;12.00;;;;;0.90;97154.00;;;;8311971;28;20284;-72
2023/12/19 08:14:13;;;;;;;23.90;11.17;;;;;1.00;97157.00;;;;8313057;28;20204;-72
2023/12/19 08:18:16;;;;;;;25.23;11.60;;;;;1.20;97155.00;;;;8317898;28;20784;-73
2023/12/19 08:22:23;;;;;;;29.37;12.10;;;;;1.40;97154.00;;;;8315475;28;20279;-76
2023/12/19 08:26:26;;;;;;;45.93;12.43;;;;;1.50;97153.00;;;;8317097;28;20703;-71
2023/12/19 08:30:30;;;;;;;25.77;12.13;;;;;1.60;97143.00;;;;8308995;28;20206;-72
2023/12/19 08:34:33;;;;;;;26.77;11.80;;;;;1.80;97157.00;;;;8316397;28;20236;-74
2023/12/19 08:38:38;;;;;;;23.17;11.20;;;;;1.90;97148.00;;;;8319712;28;20222;-73
2023/12/19 08:42:41;;;;;;;25.33;11.63;;;;;2.00;97149.00;;;;8316677;28;20650;-72
2023/12/19 08:46:45;;;;;;;24.60;10.90;;;;;2.10;97150.00;;;;8315132;28;20834;-76
2023/12/19 08:50:49;;;;;;;22.93;11.03;;;;;2.20;97136.00;;;;8316366;28;20189;-73
2023/12/19 08:54:53;;;;;;;21.80;10.73;;;;;2.30;97137.00;;;;8321663;28;20202;-72
2023/12/19 08:58:56;;;;;;;23.03;11.10;;;;;2.40;97124.00;;;;8315860;28;20582;-75
2023/12/19 09:03:00;;;;;;;27.93;12.20;;;;;2.40;97138.00;;;;8316596;28;20231;-73
2023/12/19 09:07:03;;;;;;;26.97;12.43;;;;;2.40;97123.00;;;;8316282;28;20653;-74
2023/12/19 09:11:08;;;;;;;22.77;11.13;;;;;2.40;97119.00;;;;8314958;28;20205;-78
2023/12/19 09:15:11;;;;;;;23.70;10.90;;;;;2.50;97134.00;;;;8318217;28;20590;-73
2023/12/19 09:19:16;;;;;;;25.33;13.63;;;;;2.50;97130.00;;;;8320973;28;20231;-73
2023/12/19 09:23:19;;;;;;;21.93;11.43;;;;;2.50;97138.00;;;;8310379;28;20208;-74
2023/12/19 09:27:24;;;;;;;23.03;11.00;;;;;2.60;97128.00;;;;8314742;28;20206;-72
2023/12/19 09:31:28;;;;;;;22.33;10.43;;;;;2.60;97117.00;;;;8314593;28;20220;-73
2023/12/19 09:35:31;;;;;;;21.67;11.57;;;;;2.60;97116.00;;;;8313520;28;20227;-74
2023/12/19 09:39:34;;;;;;;23.27;11.53;;;;;2.70;97113.00;;;;8313363;28;20267;-71
2023/12/19 09:43:39;;;;;;;21.17;11.23;;;;;2.70;97093.00;;;;8313582;28;20208;-74
2023/12/19 09:47:54;;;;;;;23.47;12.10;;;;;2.70;97080.00;;;;8311751;28;20210;-72
2023/12/19 09:52:00;;;;;;;23.13;10.90;;;;;2.80;97071.00;;;;8311389;28;20268;-71
2023/12/19 09:56:03;;;;;;;19.83;11.10;;;;;2.90;97059.00;;;;8314193;28;20231;-77
2023/12/19 10:00:11;;;;;;;21.70;11.63;;;;;3.00;97056.00;;;;8313469;28;20218;-72
2023/12/19 10:04:16;;;;;;;18.07;10.83;;;;;3.10;97029.00;;;;8313056;28;20289;-69
2023/12/19 10:08:21;;;;;;;20.47;11.13;;;;;3.20;97020.00;;;;8313073;28;20232;-73
2023/12/19 10:12:27;;;;;;;21.80;11.47;;;;;3.20;97008.00;;;;8311910;28;20205;-69
2023/12/19 10:16:41;;;;;;;20.70;10.97;;;;;3.20;97006.00;;;;8315565;28;20204;-69
2023/12/19 10:20:44;;;;;;;24.70;11.83;;;;;3.30;97008.00;;;;8320352;28;20221;-67
2023/12/19 10:24:47;;;;;;;17.77;10.13;;;;;3.40;96998.00;;;;8330949;28;20193;-67
2023/12/19 10:28:56;;;;;;;23.23;12.07;;;;;3.40;96982.00;;;;8333647;28;20552;-68
2023/12/19 10:33:01;;;;;;;21.70;11.37;;;;;3.50;96979.00;;;;8331492;28;20184;-67
2023/12/19 10:37:10;;;;;;;22.67;11.67;;;;;3.60;96963.00;;;;8331982;28;20246;-67
2023/12/19 10:41:20;;;;;;;21.33;10.43;;;;;3.80;96955.00;;;;8332359;28;20240;-68
2023/12/19 10:45:24;;;;;;;25.63;11.00;;;;;3.90;96953.00;;;;8333216;28;20224;-68
2023/12/19 10:49:28;;;;;;;20.20;11.40;;;;;4.00;96954.00;;;;8332767;28;20250;-68
2023/12/19 10:53:33;;;;;;;17.87;9.80;;;;;4.00;96941.00;;;;8332498;28;20251;-69
2023/12/19 10:57:38;;;;;;;21.97;11.57;;;;;4.20;96935.00;;;;8331898;28;20201;-69
2023/12/19 11:01:42;;;;;;;17.70;10.97;;;;;4.30;96933.00;;;;8332205;28;20225;-69
2023/12/19 11:05:52;;;;;;;19.27;11.37;;;;;4.40;96928.00;;;;8332109;28;20195;-69
2023/12/19 11:10:01;;;;;;;21.50;11.17;;;;;4.50;96909.00;;;;8332161;28;20182;-70
2023/12/19 11:14:06;;;;;;;19.43;11.27;;;;;4.60;96915.00;;;;8332470;28;20188;-71
2023/12/19 11:18:16;;;;;;;19.43;10.50;;;;;4.70;96906.00;;;;8331338;28;20193;-72
2023/12/19 11:22:27;;;;;;;18.50;10.47;;;;;4.80;96908.00;;;;8331174;28;20177;-72
2023/12/19 11:26:35;;;;;;;19.63;10.17;;;;;4.90;96898.00;;;;8330756;28;20189;-72
2023/12/19 11:30:40;;;;;;;19.53;11.07;;;;;4.90;96896.00;;;;8332434;28;20197;-72
2023/12/19 11:34:44;;;;;;;18.00;10.73;;;;;4.90;96872.00;;;;8330965;28;20177;-72
2023/12/19 11:38:49;;;;;;;19.40;10.97;;;;;5.00;96870.00;;;;8330504;28;20271;-73
2023/12/19 11:42:52;;;;;;;19.40;11.00;;;;;5.00;96862.00;;;;8330670;28;20232;-73
2023/12/19 11:47:16;;;;;;;16.40;9.63;;;;;5.00;96856.00;;;;8332302;28;20200;-73
2023/12/19 11:51:44;;;;;;;17.07;9.83;;;;;5.00;96857.00;;;;8338283;28;20268;-73
2023/12/19 11:55:49;;;;;;;18.30;10.00;;;;;5.10;96851.00;;;;8338287;28;20284;-73
2023/12/19 11:59:54;;;;;;;17.90;10.17;;;;;5.20;96854.00;;;;8336946;28;20225;-73
2023/12/19 12:04:04;;;;;;;17.10;10.10;;;;;5.30;96844.00;;;;8338181;28;20232;-72
2023/12/19 12:08:14;;;;;;;17.10;10.77;;;;;5.40;96846.00;;;;8337052;28;20251;-72
2023/12/19 12:12:31;;;;;;;19.40;10.20;;;;;5.50;96820.00;;;;8337683;28;20181;-73
2023/12/19 12:16:37;;;;;;;17.03;9.50;;;;;5.50;96825.00;;;;8336683;28;20181;-74
2023/12/19 12:20:40;;;;;;;17.90;10.17;;;;;5.50;96819.00;;;;8337398;28;20217;-75
2023/12/19 12:24:43;;;;;;;20.43;10.87;;;;;5.40;96815.00;;;;8336939;28;20271;-73
2023/12/19 12:28:51;;;;;;;17.37;10.03;;;;;5.30;96811.00;;;;8336848;28;20499;-73
2023/12/19 12:32:55;;;;;;;19.10;10.97;;;;;5.30;96812.00;;;;8336717;28;20272;-73
2023/12/19 12:36:58;;;;;;;16.60;9.93;;;;;5.40;96813.00;;;;8336586;28;20288;-73
2023/12/19 12:41:04;;;;;;;18.43;10.50;;;;;5.40;96806.00;;;;8336006;28;20233;-74
2023/12/19 12:45:09;;;;;;;16.47;10.30;;;;;5.60;96810.00;;;;8335790;28;20221;-73
2023/12/19 12:49:18;;;;;;;19.37;11.23;;;;;5.70;96789.00;;;;8336716;28;20649;-73
2023/12/19 12:53:21;;;;;;;16.93;9.67;;;;;5.80;96786.00;;;;8335612;28;20189;-73
2023/12/19 12:57:25;;;;;;;18.93;9.63;;;;;6.00;96774.00;;;;8336034;28;20228;-73
2023/12/19 13:01:30;;;;;;;16.50;9.67;;;;;6.10;96761.00;;;;8334053;28;20233;-73
2023/12/19 13:05:34;;;;;;;15.27;9.73;;;;;6.30;96761.00;;;;8335693;28;20224;-73
2023/12/19 13:09:37;;;;;;;17.37;9.90;;;;;6.40;96750.00;;;;8334878;28;20228;-74
2023/12/19 13:13:40;;;;;;;17.33;9.70;;;;;6.60;96748.00;;;;8335061;28;20189;-74
2023/12/19 13:17:44;;;;;;;14.93;9.20;;;;;6.70;96748.00;;;;8334798;28;20276;-73
2023/12/19 13:21:48;;;;;;;18.97;9.30;;;;;6.80;96734.00;;;;8333950;28;20239;-73
2023/12/19 13:25:51;;;;;;;15.53;9.13;;;;;6.90;96739.00;;;;8335632;28;20194;-73
2023/12/19 13:29:54;;;;;;;14.37;8.80;;;;;6.80;96731.00;;;;8335554;28;20289;-73
2023/12/19 13:34:00;;;;;;;19.53;10.27;;;;;6.80;96722.00;;;;8334212;28;20240;-73
2023/12/19 13:38:04;;;;;;;14.47;9.00;;;;;6.70;96712.00;;;;8334121;28;20182;-73
2023/12/19 13:42:07;;;;;;;13.60;9.03;;;;;6.70;96715.00;;;;8334902;28;20712;-73
2023/12/19 13:46:10;;;;;;;13.17;8.07;;;;;6.60;96712.00;;;;8333953;28;20193;-73
2023/12/19 13:50:16;;;;;;;16.00;9.47;;;;;6.50;96706.00;;;;8333759;28;20229;-73
2023/12/19 13:54:21;;;;;;;12.57;8.60;;;;;6.40;96704.00;;;;8334097;28;20193;-74
2023/12/19 13:58:24;;;;;;;15.57;9.10;;;;;6.40;96687.00;;;;8333164;28;20201;-74
2023/12/19 14:02:28;;;;;;;12.40;7.70;;;;;6.30;96683.00;;;;8333072;28;20265;-73
2023/12/19 14:06:32;;;;;;;13.63;8.80;;;;;6.30;96685.00;;;;8332771;28;20619;-73
2023/12/19 14:10:35;;;;;;;13.97;8.03;;;;;6.30;96676.00;;;;8332771;28;20200;-74
2023/12/19 14:14:38;;;;;;;13.07;8.30;;;;;6.30;96671.00;;;;8332772;28;20194;-73
2023/12/19 14:18:41;;;;;;;14.63;8.73;;;;;6.30;96664.00;;;;8332957;28;20604;-73
2023/12/19 14:22:50;;;;;;;15.67;8.80;;;;;6.30;96663.00;;;;8332743;28;20209;-72
2023/12/19 14:26:53;;;;;;;18.63;8.50;;;;;6.20;96658.00;;;;8333899;28;20523;-73
2023/12/19 14:30:56;;;;;;;13.53;8.23;;;;;6.20;96659.00;;;;8333116;28;20197;-73
2023/12/19 14:35:00;;;;;;;15.17;8.27;;;;;6.20;96650.00;;;;8332555;28;20224;-74
2023/12/19 14:39:05;;;;;;;16.07;9.03;;;;;6.10;96651.00;;;;8332939;28;20197;-74
2023/12/19 14:43:12;;;;;;;17.70;9.60;;;;;6.00;96651.00;;;;8332843;28;20253;-74
2023/12/19 14:47:15;;;;;;;15.20;8.60;;;;;6.00;96643.00;;;;8332272;28;20201;-74
2023/12/19 14:51:19;;;;;;;12.93;8.13;;;;;5.90;96647.00;;;;8332172;28;20277;-74
2023/12/19 14:55:24;;;;;;;16.17;9.30;;;;;5.80;96651.00;;;;8333209;28;20194;-74
2023/12/19 14:59:27;;;;;;;17.00;8.93;;;;;5.70;96653.00;;;;8332832;28;20500;-74
2023/12/19 15:03:31;;;;;;;15.77;7.97;;;;;5.60;96653.00;;;;8331994;28;20689;-75
2023/12/19 15:07:36;;;;;;;17.70;10.13;;;;;5.50;96656.00;;;;8331795;28;20198;-75
2023/12/19 15:11:42;;;;;;;17.43;9.10;;;;;5.40;96656.00;;;;8331609;28;20198;-76
2023/12/19 15:15:46;;;;;;;17.63;9.53;;;;;5.40;96647.00;;;;8331329;28;20570;-75
2023/12/19 15:19:49;;;;;;;19.90;9.77;;;;;5.30;96638.00;;;;8333190;28;20204;-75
2023/12/19 15:23:52;;;;;;;22.57;12.17;;;;;5.30;96633.00;;;;8329782;28;20202;-76
2023/12/19 15:27:56;;;;;;;17.90;10.23;;;;;5.30;96626.00;;;;8327995;28;20557;-74
2023/12/19 15:32:13;;;;;;;43.70;26.43;;;;;5.20;96607.00;;;;8331077;28;20669;-76
2023/12/19 15:36:19;;;;;;;19.53;11.30;;;;;5.10;96617.00;;;;8330439;28;20200;-76
2023/12/19 15:40:23;;;;;;;48.20;38.97;;;;;5.00;96609.00;;;;8331511;28;20619;-71
2023/12/19 15:44:27;;;;;;;131.20;75.13;;;;;5.00;96612.00;;;;8330536;28;20280;-72
2023/12/19 15:48:30;;;;;;;199.87;118.47;;;;;5.00;96595.00;;;;8331100;28;20224;-71
2023/12/19 15:52:34;;;;;;;112.03;56.40;;;;;4.90;96592.00;;;;8329848;28;20254;-71
2023/12/19 15:56:42;;;;;;;1999.90;956.60;;;;;4.80;96580.00;;;;8330642;28;20189;-72
2023/12/19 16:00:48;;;;;;;919.50;383.73;;;;;4.80;96585.00;;;;8330370;28;20232;-72
2023/12/19 16:04:53;;;;;;;99.47;60.17;;;;;4.80;96585.00;;;;8331086;28;20210;-72
2023/12/19 16:08:57;;;;;;;43.67;25.37;;;;;4.80;96583.00;;;;8330522;28;20289;-72
2023/12/19 16:13:00;;;;;;;33.03;16.23;;;;;4.80;96577.00;;;;8331100;28;20641;-72
2023/12/19 16:17:05;;;;;;;60.37;49.03;;;;;4.70;96572.00;;;;8330495;28;20581;-72
2023/12/19 16:21:09;;;;;;;28.57;13.17;;;;;4.70;96580.00;;;;8330731;28;20252;-73
2023/12/19 16:25:14;;;;;;;20.43;11.67;;;;;4.70;96565.00;;;;8330541;28;20204;-73
2023/12/19 16:29:18;;;;;;;22.37;12.30;;;;;4.80;96565.00;;;;8330410;28;20186;-73
2023/12/19 16:33:22;;;;;;;18.20;10.77;;;;;4.70;96560.00;;;;8332672;28;20197;-73
2023/12/19 16:37:27;;;;;;;21.27;9.67;;;;;4.70;96560.00;;;;8335629;28;20181;-74
2023/12/19 16:41:30;;;;;;;15.50;9.43;;;;;4.70;96560.00;;;;8336855;28;20225;-74
2023/12/19 16:45:33;;;;;;;19.77;10.83;;;;;4.60;96550.00;;;;8335513;28;20189;-73
2023/12/19 16:49:38;;;;;;;16.10;9.67;;;;;4.50;96542.00;;;;8335861;28;20201;-74
2023/12/19 16:53:41;;;;;;;16.23;10.03;;;;;4.50;96545.00;;;;8335881;28;20657;-79
2023/12/19 16:57:45;;;;;;;20.07;11.20;;;;;4.40;96538.00;;;;8335711;28;20210;-77
2023/12/19 17:01:48;;;;;;;21.07;12.37;;;;;4.40;96544.00;;;;8336144;28;20243;-77
2023/12/19 17:05:53;;;;;;;24.03;12.10;;;;;4.40;96546.00;;;;8335372;28;20660;-77
2023/12/19 17:09:56;;;;;;;20.30;10.77;;;;;4.30;96529.00;;;;8335169;28;20196;-77
2023/12/19 17:13:59;;;;;;;20.73;10.80;;;;;4.30;96529.00;;;;8336071;28;20678;-78
2023/12/19 17:18:03;;;;;;;20.53;9.50;;;;;4.30;96524.00;;;;8334486;28;20243;-77
2023/12/19 17:22:08;;;;;;;19.50;10.13;;;;;4.20;96516.00;;;;8334410;28;20218;-77
2023/12/19 17:26:11;;;;;;;20.50;9.67;;;;;4.10;96509.00;;;;8335009;28;20201;-77
2023/12/19 17:30:15;;;;;;;20.33;10.07;;;;;4.00;96512.00;;;;8335084;28;20698;-77
2023/12/19 17:34:18;;;;;;;18.03;9.93;;;;;3.90;96493.00;;;;8335216;28;20200;-78
2023/12/19 17:38:22;;;;;;;17.53;9.93;;;;;3.70;96483.00;;;;8334250;28;20295;-77
2023/12/19 17:42:27;;;;;;;17.40;9.80;;;;;3.60;96489.00;;;;8334090;28;20228;-77
2023/12/19 17:46:30;;;;;;;19.80;9.67;;;;;3.50;96484.00;;;;8334172;28;20653;-76
2023/12/19 17:50:33;;;;;;;19.77;10.23;;;;;3.30;96485.00;;;;8333589;28;20236;-77
2023/12/19 17:54:40;;;;;;;23.67;10.47;;;;;3.20;96480.00;;;;8333773;28;20198;-76
2023/12/19 17:58:43;;;;;;;17.93;9.97;;;;;3.20;96467.00;;;;8334626;28;20203;-77
2023/12/19 18:02:47;;;;;;;24.40;10.83;;;;;3.10;96465.00;;;;8333620;28;20239;-77
2023/12/19 18:06:50;;;;;;;19.80;10.43;;;;;3.10;96469.00;;;;8333191;28;20210;-75
2023/12/19 18:10:56;;;;;;;22.70;11.97;;;;;3.00;96473.00;;;;8333983;28;20201;-77
2023/12/19 18:14:59;;;;;;;21.80;11.80;;;;;3.00;96468.00;;;;8333081;28;20201;-78
2023/12/19 18:19:02;;;;;;;24.00;12.33;;;;;3.10;96466.00;;;;8332721;28;20205;-76
2023/12/19 18:23:06;;;;;;;22.97;11.70;;;;;3.10;96463.00;;;;8332784;28;20229;-77
2023/12/19 18:27:10;;;;;;;22.97;11.30;;;;;3.20;96460.00;;;;8334140;28;20646;-77
2023/12/19 18:31:13;;;;;;;24.10;12.13;;;;;3.20;96458.00;;;;8332141;28;20248;-78
2023/12/19 18:35:18;;;;;;;30.40;13.27;;;;;3.20;96466.00;;;;8332601;28;20257;-78
2023/12/19 18:39:22;;;;;;;27.60;12.70;;;;;3.20;96467.00;;;;8332805;28;20236;-76
2023/12/19 18:43:26;;;;;;;27.23;13.77;;;;;3.20;96460.00;;;;8333012;28;20221;-77
2023/12/19 18:47:30;;;;;;;63.87;24.90;;;;;3.30;96445.00;;;;8332246;28;20225;-77
2023/12/19 18:51:34;;;;;;;139.17;53.47;;;;;3.40;96450.00;;;;8332731;28;20204;-77
2023/12/19 18:55:37;;;;;;;154.07;55.60;;;;;3.50;96448.00;;;;8332230;28;20280;-77
2023/12/19 18:59:43;;;;;;;334.13;118.87;;;;;3.50;96424.00;;;;8328058;28;20243;-77
2023/12/19 19:03:47;;;;;;;146.27;51.37;;;;;3.50;96431.00;;;;8330053;28;20232;-77
2023/12/19 19:07:51;;;;;;;49.33;26.23;;;;;3.60;96431.00;;;;8330941;28;20247;-77
2023/12/19 19:11:57;;;;;;;29.67;15.50;;;;;3.60;96407.00;;;;8331490;28;20178;-77
2023/12/19 19:16:01;;;;;;;30.90;14.13;;;;;3.50;96400.00;;;;8331953;28;20193;-77
2023/12/19 19:20:06;;;;;;;29.33;15.10;;;;;3.50;96394.00;;;;8331371;28;20251;-77
2023/12/19 19:24:09;;;;;;;31.40;15.40;;;;;3.40;96387.00;;;;8332304;28;20658;-77
2023/12/19 19:28:13;;;;;;;30.53;15.30;;;;;3.40;96376.00;;;;8332165;28;20228;-75
2023/12/19 19:32:18;;;;;;;37.17;16.40;;;;;3.30;96372.00;;;;8330938;28;20274;-74
2023/12/19 19:36:23;;;;;;;33.00;17.37;;;;;3.30;96369.00;;;;8331803;28;20181;-74
2023/12/19 19:40:27;;;;;;;31.00;15.70;;;;;3.30;96359.00;;;;8332024;28;20190;-74
2023/12/19 19:44:43;;;;;;;31.93;15.87;;;;;3.30;96351.00;;;;8329068;28;20296;-74
2023/12/19 19:48:48;;;;;;;33.63;16.17;;;;;3.20;96342.00;;;;8326828;28;20197;-74
2023/12/19 19:52:51;;;;;;;46.63;28.43;;;;;3.20;96342.00;;;;8327329;28;20199;-74
2023/12/19 19:56:56;;;;;;;59.30;39.67;;;;;3.20;96347.00;;;;8330217;28;20201;-75
2023/12/19 20:00:59;;;;;;;48.67;29.50;;;;;3.20;96340.00;;;;8329144;28;20201;-76
2023/12/19 20:05:06;;;;;;;45.03;28.53;;;;;3.20;96337.00;;;;8329769;28;20204;-74
2023/12/19 20:09:10;;;;;;;47.27;26.23;;;;;3.10;96332.00;;;;8332556;28;20245;-75